createdAt,value
2023-03-17T00:04:52.489Z,1.72
2023-03-17T00:09:56.068Z,1.71
2023-03-17T00:14:58.787Z,1.70
2023-03-17T00:20:01.981Z,1.71
2023-03-17T00:25:22.284Z,1.70
2023-03-17T00:30:25.579Z,2.52
2023-03-17T00:35:29.344Z,5.93
2023-03-17T00:40:32.733Z,7.81
2023-03-17T00:45:35.928Z,6.50
2023-03-17T00:50:38.648Z,5.14
2023-03-17T00:55:42.679Z,4.37
2023-03-17T01:00:45.834Z,3.83
2023-03-17T01:05:49.810Z,3.35
2023-03-17T01:10:53.033Z,2.96
2023-03-17T01:15:57.298Z,2.66
2023-03-17T01:21:00.038Z,2.42
2023-03-17T01:26:03.178Z,2.24
2023-03-17T01:31:05.889Z,2.08
2023-03-17T01:36:10.772Z,1.97
2023-03-17T01:41:13.496Z,1.82
2023-03-17T01:46:25.362Z,1.70
2023-03-17T01:51:46.771Z,1.58
2023-03-17T01:56:52.216Z,1.44
2023-03-17T02:02:01.658Z,1.34
2023-03-17T02:07:05.349Z,1.30
2023-03-17T02:12:09.917Z,1.28
2023-03-17T02:17:13.000Z,1.24
2023-03-17T02:22:17.286Z,1.20
2023-03-17T02:27:29.965Z,1.18
2023-03-17T02:32:38.731Z,1.12
2023-03-17T02:37:43.774Z,1.02
2023-03-17T02:42:46.862Z,1.31
2023-03-17T02:47:51.624Z,4.46
2023-03-17T02:52:54.903Z,7.00
2023-03-17T02:57:59.064Z,6.61
2023-03-17T03:03:02.570Z,4.98
2023-03-17T03:08:05.553Z,4.09
2023-03-17T03:13:08.378Z,3.50
2023-03-17T03:18:12.500Z,3.05
2023-03-17T03:23:16.328Z,2.64
2023-03-17T03:28:19.343Z,2.26
2023-03-17T03:33:22.120Z,1.95
2023-03-17T03:38:26.314Z,1.69
2023-03-17T03:43:29.138Z,1.43
2023-03-17T03:48:32.457Z,1.26
2023-03-17T03:53:35.678Z,1.16
2023-03-17T03:58:38.369Z,1.11
2023-03-17T04:03:41.308Z,1.05
2023-03-17T04:08:44.080Z,0.96
2023-03-17T04:13:46.789Z,0.88
2023-03-17T04:18:49.534Z,0.84
2023-03-17T04:23:52.284Z,0.78
2023-03-17T04:28:54.989Z,0.75
2023-03-17T04:33:57.749Z,0.74
2023-03-17T04:39:02.111Z,0.71
2023-03-17T04:44:05.182Z,0.70
2023-03-17T04:49:08.515Z,2.35
2023-03-17T04:54:11.266Z,5.61
2023-03-17T04:59:14.526Z,7.41
2023-03-17T05:04:30.858Z,7.29
2023-03-17T05:09:34.842Z,5.25
2023-03-17T05:14:37.683Z,4.10
2023-03-17T05:19:40.856Z,3.40
2023-03-17T05:24:43.770Z,2.85
2023-03-17T05:29:46.492Z,2.43
2023-03-17T05:34:50.073Z,2.13
2023-03-17T05:39:53.915Z,1.87
2023-03-17T05:44:56.713Z,1.71
2023-03-17T05:50:03.358Z,1.64
2023-03-17T05:55:07.409Z,1.70
2023-03-17T06:00:12.757Z,4.28
2023-03-17T06:05:16.405Z,7.25
2023-03-17T06:10:19.205Z,8.86
2023-03-17T06:15:21.966Z,7.72
2023-03-17T06:20:25.206Z,6.20
2023-03-17T06:25:27.967Z,5.33
2023-03-17T06:30:33.441Z,4.77
2023-03-17T06:35:36.628Z,4.32
2023-03-17T06:40:39.445Z,4.00
2023-03-17T06:45:42.177Z,3.79
2023-03-17T06:50:47.537Z,5.52
2023-03-17T06:55:50.338Z,8.63
2023-03-17T07:00:54.646Z,7.26
2023-03-17T07:05:58.290Z,5.94
2023-03-17T07:11:01.053Z,5.26
2023-03-17T07:16:03.958Z,4.85
2023-03-17T07:21:07.284Z,4.60
2023-03-17T07:26:10.595Z,6.00
2023-03-17T07:31:14.560Z,9.58
2023-03-17T07:36:17.644Z,8.99
2023-03-17T07:41:22.058Z,7.24
2023-03-17T07:46:24.849Z,6.37
2023-03-17T07:51:28.323Z,5.77
2023-03-17T07:56:31.911Z,5.37
2023-03-17T08:01:35.539Z,5.13
2023-03-17T08:06:40.902Z,7.50
2023-03-17T08:11:43.705Z,8.12
2023-03-17T08:16:46.553Z,6.84
2023-03-17T08:21:49.456Z,6.18
2023-03-17T08:26:52.433Z,5.79
2023-03-17T08:31:55.416Z,5.56
2023-03-17T08:36:58.200Z,6.99
2023-03-17T08:42:01.387Z,8.28
2023-03-17T08:47:04.797Z,7.19
2023-03-17T08:52:08.223Z,6.68
2023-03-17T08:57:10.972Z,6.41
2023-03-17T09:02:15.079Z,6.26
2023-03-17T09:07:17.876Z,6.18
2023-03-17T09:12:20.742Z,6.14
2023-03-17T09:17:23.565Z,6.12
2023-03-17T09:22:26.367Z,6.13
2023-03-17T09:27:29.102Z,6.17
2023-03-17T09:32:32.479Z,6.24
2023-03-17T09:37:35.313Z,6.35
2023-03-17T09:42:53.372Z,6.42
2023-03-17T09:48:14.217Z,6.48
2023-03-17T09:53:23.040Z,6.57
2023-03-17T09:58:32.230Z,6.68
2023-03-17T10:03:34.990Z,6.78
2023-03-17T10:08:42.373Z,6.87
2023-03-17T10:13:48.597Z,6.89
2023-03-17T10:19:01.442Z,6.97
2023-03-17T10:24:05.016Z,7.07
2023-03-17T10:29:22.704Z,7.13
2023-03-17T10:34:29.269Z,7.22
2023-03-17T10:39:33.076Z,7.30
2023-03-17T10:44:45.064Z,7.35
2023-03-17T10:49:48.331Z,7.42
2023-03-17T10:54:54.593Z,7.44
2023-03-17T10:59:59.924Z,7.48
2023-03-17T11:05:09.767Z,7.57
2023-03-17T11:10:24.163Z,7.63
2023-03-17T11:15:34.193Z,7.63
2023-03-17T11:20:41.086Z,7.68
2023-03-17T11:25:46.513Z,7.73
2023-03-17T11:31:03.245Z,7.77
2023-03-17T11:36:09.369Z,7.79
2023-03-17T11:41:27.598Z,7.86
2023-03-17T11:46:45.321Z,7.88
2023-03-17T11:52:07.171Z,7.91
2023-03-17T11:57:15.497Z,7.94
2023-03-17T12:02:25.460Z,7.97
2023-03-17T12:07:51.508Z,8.03
2023-03-17T12:13:02.273Z,8.07
2023-03-17T12:18:12.501Z,8.10
2023-03-17T12:23:21.918Z,8.11
2023-03-17T12:28:27.877Z,8.13
2023-03-17T12:33:51.982Z,8.12
2023-03-17T12:39:05.618Z,8.10
2023-03-17T12:44:46.002Z,8.10
2023-03-17T12:50:16.792Z,8.11
2023-03-17T12:55:23.414Z,8.08
2023-03-17T13:00:33.528Z,8.06
2023-03-17T13:05:37.553Z,8.03
2023-03-17T13:10:48.857Z,8.03
2023-03-17T13:15:58.449Z,8.02
2023-03-17T13:21:01.208Z,8.05
2023-03-17T13:26:04.489Z,8.09
2023-03-17T13:31:14.702Z,8.17
2023-03-17T13:36:40.717Z,8.20
2023-03-17T13:42:18.685Z,8.26
2023-03-17T13:47:31.603Z,8.32
2023-03-17T13:52:38.545Z,8.33
2023-03-17T13:57:41.309Z,8.34
2023-03-17T14:02:44.849Z,8.33
2023-03-17T14:07:56.478Z,8.31
2023-03-17T14:13:07.952Z,8.30
2023-03-17T14:18:19.610Z,8.28
2023-03-17T14:23:24.171Z,8.25
2023-03-17T14:28:29.660Z,8.23
2023-03-17T14:33:34.750Z,8.23
2023-03-17T14:38:39.413Z,8.22
2023-03-17T14:43:44.048Z,8.18
2023-03-17T14:48:48.694Z,8.14
2023-03-17T14:53:52.808Z,8.08
2023-03-17T14:59:04.096Z,8.03
2023-03-17T15:04:17.075Z,7.96
2023-03-17T15:09:27.385Z,7.88
2023-03-17T15:14:34.032Z,7.84
2023-03-17T15:19:41.015Z,7.78
2023-03-17T15:24:44.274Z,7.74
2023-03-17T15:29:48.366Z,7.68
2023-03-17T15:34:52.996Z,7.63
2023-03-17T15:39:56.439Z,7.58
2023-03-17T15:45:02.962Z,7.53
2023-03-17T15:50:28.740Z,7.50
2023-03-17T15:55:31.612Z,7.48
2023-03-17T16:00:34.952Z,7.47
2023-03-17T16:05:37.855Z,7.46
2023-03-17T16:10:40.701Z,7.45
2023-03-17T16:15:47.329Z,7.44
2023-03-17T16:20:51.168Z,7.39
2023-03-17T16:25:59.269Z,7.35
2023-03-17T16:31:24.273Z,7.27
2023-03-17T16:36:27.127Z,7.18
2023-03-17T16:41:34.707Z,7.07
2023-03-17T16:46:37.752Z,6.97
2023-03-17T16:51:40.755Z,6.85
2023-03-17T16:56:43.555Z,6.74
2023-03-17T17:01:46.309Z,6.64
2023-03-17T17:06:50.068Z,6.53
2023-03-17T17:11:52.804Z,6.41
2023-03-17T17:16:55.646Z,6.29
2023-03-17T17:21:58.370Z,6.20
2023-03-17T17:27:01.131Z,6.13
2023-03-17T17:32:04.033Z,6.04
2023-03-17T17:37:10.115Z,5.96
2023-03-17T17:42:12.920Z,5.88
2023-03-17T17:47:17.107Z,5.80
2023-03-17T17:52:19.946Z,5.72
2023-03-17T17:57:23.353Z,5.63
2023-03-17T18:02:26.097Z,5.54
2023-03-17T18:07:28.838Z,5.46
2023-03-17T18:12:31.947Z,5.38
2023-03-17T18:17:35.290Z,5.32
2023-03-17T18:22:38.182Z,5.24
2023-03-17T18:27:41.431Z,5.17
2023-03-17T18:32:45.425Z,5.09
2023-03-17T18:37:49.234Z,5.03
2023-03-17T18:42:51.982Z,4.98
2023-03-17T18:47:54.819Z,4.92
2023-03-17T18:52:58.159Z,4.86
2023-03-17T18:58:01.021Z,4.80
2023-03-17T19:03:03.936Z,4.74
2023-03-17T19:08:07.671Z,4.68
2023-03-17T19:13:10.466Z,4.63
2023-03-17T19:18:13.205Z,4.60
2023-03-17T19:23:16.159Z,4.59
2023-03-17T19:28:19.319Z,4.59
2023-03-17T19:33:22.318Z,4.55
2023-03-17T19:38:27.131Z,4.52
2023-03-17T19:43:40.411Z,4.47
2023-03-17T19:48:43.853Z,4.41
2023-03-17T19:53:46.865Z,4.37
2023-03-17T19:58:52.871Z,4.32
2023-03-17T20:03:56.356Z,4.29
2023-03-17T20:08:59.319Z,4.24
2023-03-17T20:14:03.022Z,4.20
2023-03-17T20:19:05.770Z,4.17
2023-03-17T20:24:11.080Z,4.13
2023-03-17T20:29:14.552Z,4.09
2023-03-17T20:34:17.414Z,4.02
2023-03-17T20:39:20.130Z,3.95
2023-03-17T20:44:24.099Z,3.88
2023-03-17T20:49:27.825Z,3.83
2023-03-17T20:54:30.528Z,3.77
2023-03-17T20:59:34.648Z,3.73
2023-03-17T21:04:37.636Z,3.68
2023-03-17T21:09:41.368Z,3.63
2023-03-17T21:14:44.591Z,3.58
2023-03-17T21:19:47.447Z,3.56
2023-03-17T21:24:50.579Z,3.53
2023-03-17T21:29:53.425Z,3.50
2023-03-17T21:34:56.709Z,3.49
2023-03-17T21:40:02.473Z,3.46
2023-03-17T21:45:05.819Z,3.43
2023-03-17T21:50:09.166Z,3.41
2023-03-17T21:55:12.086Z,3.39
2023-03-17T22:00:15.321Z,3.36
2023-03-17T22:05:18.580Z,3.36
2023-03-17T22:10:21.601Z,3.34
2023-03-17T22:15:24.382Z,3.32
2023-03-17T22:20:27.166Z,3.31
2023-03-17T22:25:29.933Z,3.29
2023-03-17T22:30:37.311Z,3.29
2023-03-17T22:35:40.250Z,3.27
2023-03-17T22:40:43.505Z,3.25
2023-03-17T22:45:47.438Z,3.22
2023-03-17T22:50:50.302Z,3.19
2023-03-17T22:55:53.487Z,3.17
2023-03-17T23:00:56.563Z,3.13
2023-03-17T23:06:00.881Z,3.08
2023-03-17T23:11:07.304Z,3.06
2023-03-17T23:16:10.057Z,3.04
2023-03-17T23:21:26.579Z,3.02
2023-03-17T23:26:30.126Z,3.00
2023-03-17T23:31:34.139Z,2.98
2023-03-17T23:36:40.247Z,2.96
2023-03-17T23:41:43.069Z,2.93
2023-03-17T23:46:46.543Z,2.91
2023-03-17T23:51:49.500Z,2.89
2023-03-17T23:56:52.740Z,2.86
